Time;durP1;ratioP1;P1;durP2;ratioP2;P2;SDS_P1;SDS_P2;PMS_P1;PMS_P2;Temp;Humidity;BMP_temperature;BMP_pressure;BME280_temperature;BME280_humidity;BME280_pressure;Samples;Min_cycle;Max_cycle;Signal;HPM_P1;HPM_P2
2020/12/28 00:02:20;;;;;;;1.20;1.20;;;4.80;99.90;;;;;;5052565;28;20186;-64
2020/12/28 00:04:46;;;;;;;1.30;1.20;;;4.70;99.90;;;;;;5052975;28;20167;-65
2020/12/28 00:07:14;;;;;;;1.30;1.20;;;4.70;99.90;;;;;;5052376;28;20190;-64
2020/12/28 00:09:40;;;;;;;1.80;1.50;;;4.70;99.90;;;;;;5052464;28;20232;-64
2020/12/28 00:12:06;;;;;;;1.30;1.20;;;4.70;99.90;;;;;;5051691;28;20202;-64
2020/12/28 00:14:31;;;;;;;1.33;1.27;;;4.70;99.90;;;;;;5052043;28;20209;-64
2020/12/28 00:16:57;;;;;;;1.37;1.37;;;4.70;99.90;;;;;;5052405;28;20167;-64
2020/12/28 00:19:23;;;;;;;1.50;1.40;;;4.70;99.90;;;;;;5052118;28;20178;-64
2020/12/28 00:21:48;;;;;;;1.50;1.40;;;4.70;99.90;;;;;;5051947;28;20170;-65
2020/12/28 00:24:14;;;;;;;1.40;1.40;;;4.70;99.90;;;;;;5051699;28;20211;-63
2020/12/28 00:26:41;;;;;;;1.73;1.63;;;4.70;99.90;;;;;;5052166;28;20253;-65
2020/12/28 00:29:07;;;;;;;1.43;1.33;;;4.60;99.90;;;;;;5051999;28;20185;-64
2020/12/28 00:31:33;;;;;;;1.63;1.50;;;4.60;99.90;;;;;;5051769;28;20205;-65
2020/12/28 00:34:00;;;;;;;1.60;1.50;;;4.60;99.90;;;;;;5051686;28;20660;-63
2020/12/28 00:36:25;;;;;;;1.40;1.30;;;4.60;99.90;;;;;;5051689;28;20254;-64
2020/12/28 00:38:51;;;;;;;2.33;1.30;;;4.50;99.90;;;;;;5051460;28;20218;-64
2020/12/28 00:41:17;;;;;;;2.00;1.30;;;4.50;99.90;;;;;;5051672;28;20220;-64
2020/12/28 00:43:43;;;;;;;1.30;1.30;;;4.50;99.90;;;;;;5051489;28;20289;-64
2020/12/28 00:46:10;;;;;;;2.93;1.50;;;4.50;99.90;;;;;;5051749;28;20174;-64
2020/12/28 00:48:36;;;;;;;2.80;1.53;;;4.50;99.90;;;;;;5051513;28;20186;-64
2020/12/28 00:51:02;;;;;;;1.83;1.40;;;4.50;99.90;;;;;;5051430;28;20643;-63
2020/12/28 00:53:29;;;;;;;1.40;1.40;;;4.50;99.90;;;;;;5051668;28;20198;-64
2020/12/28 00:55:55;;;;;;;1.33;1.30;;;4.50;99.90;;;;;;5051878;28;20171;-64
2020/12/28 00:58:21;;;;;;;1.40;1.30;;;4.40;99.90;;;;;;5051813;28;20167;-64
2020/12/28 01:00:47;;;;;;;1.30;1.30;;;4.40;99.90;;;;;;5051332;28;20175;-64
2020/12/28 01:03:13;;;;;;;1.37;1.33;;;4.50;99.90;;;;;;5051576;28;20694;-66
2020/12/28 01:05:38;;;;;;;1.20;1.20;;;4.40;99.90;;;;;;5051125;28;20198;-64
2020/12/28 01:08:04;;;;;;;1.43;1.33;;;4.50;99.90;;;;;;5051115;28;20735;-64
2020/12/28 01:10:29;;;;;;;1.50;1.40;;;4.50;99.90;;;;;;5051258;28;20167;-64
2020/12/28 01:12:55;;;;;;;1.50;1.40;;;4.50;99.90;;;;;;5051021;28;20753;-64
2020/12/28 01:15:20;;;;;;;1.60;1.50;;;4.50;99.90;;;;;;5051530;28;20250;-64
2020/12/28 01:17:46;;;;;;;1.30;1.20;;;4.60;99.90;;;;;;5051157;28;20194;-64
2020/12/28 01:20:11;;;;;;;1.30;1.30;;;4.60;99.90;;;;;;5050947;28;20178;-64
2020/12/28 01:22:37;;;;;;;3.00;1.77;;;4.70;99.90;;;;;;5050963;28;20314;-64
2020/12/28 01:25:04;;;;;;;1.60;1.50;;;4.70;99.90;;;;;;5051442;28;20185;-64
2020/12/28 01:27:30;;;;;;;2.93;1.63;;;4.70;99.90;;;;;;5050973;28;20178;-64
2020/12/28 01:29:55;;;;;;;2.17;1.53;;;4.70;99.90;;;;;;5050959;28;20252;-64
2020/12/28 01:32:21;;;;;;;1.80;1.70;;;4.70;99.90;;;;;;5051373;28;20285;-63
2020/12/28 01:34:46;;;;;;;2.33;1.80;;;4.60;99.90;;;;;;5050798;28;20739;-63
2020/12/28 01:37:12;;;;;;;1.60;1.50;;;4.60;99.90;;;;;;5051355;28;20178;-64
2020/12/28 01:39:39;;;;;;;1.20;1.20;;;4.50;99.90;;;;;;5050649;28;20227;-64
2020/12/28 01:42:06;;;;;;;1.50;1.40;;;4.50;99.90;;;;;;5050809;28;20167;-64
2020/12/28 01:44:31;;;;;;;1.30;1.30;;;4.50;99.90;;;;;;5050638;28;20281;-65
2020/12/28 01:46:57;;;;;;;1.33;1.23;;;4.50;99.90;;;;;;5051043;28;20186;-64
2020/12/28 01:49:23;;;;;;;1.67;1.57;;;4.50;99.90;;;;;;5054742;28;20222;-64
2020/12/28 01:51:49;;;;;;;1.20;1.20;;;4.50;99.90;;;;;;5053307;28;20199;-64
2020/12/28 01:54:15;;;;;;;1.30;1.30;;;4.50;99.90;;;;;;5054467;28;20202;-64
2020/12/28 01:56:41;;;;;;;1.30;1.30;;;4.50;99.90;;;;;;5054808;28;20167;-64
2020/12/28 01:59:08;;;;;;;1.20;1.20;;;4.50;99.90;;;;;;5054665;28;20644;-64
2020/12/28 02:01:39;;;;;;;1.50;1.40;;;4.50;99.90;;;;;;5054290;28;20852;-63
2020/12/28 02:04:05;;;;;;;1.10;1.10;;;4.50;99.90;;;;;;5054730;28;20191;-64
2020/12/28 02:06:31;;;;;;;1.13;1.13;;;4.40;99.90;;;;;;5053894;28;20682;-64
2020/12/28 02:08:56;;;;;;;1.20;1.20;;;4.40;99.90;;;;;;5053384;28;20269;-63
2020/12/28 02:11:22;;;;;;;1.33;1.23;;;4.40;99.90;;;;;;5053498;28;20210;-64
2020/12/28 02:13:47;;;;;;;1.20;1.20;;;4.40;99.90;;;;;;5054559;28;20202;-64
2020/12/28 02:16:13;;;;;;;1.40;1.30;;;4.40;99.90;;;;;;5054461;28;20182;-64
2020/12/28 02:18:38;;;;;;;1.30;1.30;;;4.50;99.90;;;;;;5054830;28;20237;-63
2020/12/28 02:21:04;;;;;;;1.57;1.43;;;4.50;99.90;;;;;;5054310;28;20178;-63
2020/12/28 02:23:30;;;;;;;1.23;1.23;;;4.40;99.90;;;;;;5054012;28;20203;-65
2020/12/28 02:25:56;;;;;;;1.47;1.40;;;4.50;99.90;;;;;;5054897;28;20182;-63
2020/12/28 02:28:21;;;;;;;1.53;1.43;;;4.50;99.90;;;;;;5053989;28;20547;-63
2020/12/28 02:30:47;;;;;;;1.40;1.30;;;4.50;99.90;;;;;;5053925;28;20174;-63
2020/12/28 02:33:12;;;;;;;1.30;1.20;;;4.50;99.90;;;;;;5053950;28;20234;-64
2020/12/28 02:35:38;;;;;;;1.40;1.30;;;4.50;99.90;;;;;;5054275;28;20170;-63
2020/12/28 02:38:04;;;;;;;1.40;1.30;;;4.40;99.90;;;;;;5053912;28;20182;-64
2020/12/28 02:40:29;;;;;;;1.20;1.20;;;4.50;99.90;;;;;;5054190;28;20633;-63
2020/12/28 02:42:55;;;;;;;1.40;1.30;;;4.50;99.90;;;;;;5054039;28;20212;-63
2020/12/28 02:45:20;;;;;;;1.53;1.43;;;4.50;99.90;;;;;;5054322;28;20573;-63
2020/12/28 02:47:46;;;;;;;1.40;1.30;;;4.50;99.90;;;;;;5054069;28;20175;-63
2020/12/28 02:50:11;;;;;;;1.20;1.20;;;4.50;99.90;;;;;;5053757;28;20201;-63
2020/12/28 02:52:37;;;;;;;1.40;1.30;;;4.50;99.90;;;;;;5053672;28;20206;-64
2020/12/28 02:55:03;;;;;;;1.20;1.20;;;4.50;99.90;;;;;;5055099;28;20542;-64
2020/12/28 02:57:28;;;;;;;1.20;1.20;;;4.50;99.90;;;;;;5055648;28;20296;-66
2020/12/28 02:59:54;;;;;;;1.20;1.20;;;4.50;99.90;;;;;;5054214;28;20205;-64
2020/12/28 03:02:19;;;;;;;1.20;1.20;;;4.60;99.90;;;;;;5055089;28;20231;-64
2020/12/28 03:04:45;;;;;;;1.20;1.20;;;4.60;99.90;;;;;;5055333;28;20186;-64
2020/12/28 03:07:10;;;;;;;1.40;1.30;;;4.60;99.90;;;;;;5056491;28;20179;-63
2020/12/28 03:09:36;;;;;;;1.10;1.10;;;4.60;99.90;;;;;;5056312;28;20175;-64
2020/12/28 03:12:02;;;;;;;1.23;1.23;;;4.70;99.90;;;;;;5054522;28;20202;-64
2020/12/28 03:14:27;;;;;;;1.23;1.23;;;4.70;99.90;;;;;;5053463;28;20195;-65
2020/12/28 03:16:53;;;;;;;1.30;1.30;;;4.70;99.90;;;;;;5053519;28;20250;-64
2020/12/28 03:19:18;;;;;;;1.40;1.30;;;4.80;99.90;;;;;;5053478;28;20253;-65
2020/12/28 03:21:44;;;;;;;1.80;1.70;;;4.70;99.90;;;;;;5052847;28;20195;-64
2020/12/28 03:24:09;;;;;;;2.47;1.57;;;4.70;99.90;;;;;;5051869;28;20216;-65
2020/12/28 03:26:35;;;;;;;1.27;1.27;;;4.70;99.90;;;;;;5052958;28;20667;-64
2020/12/28 03:29:00;;;;;;;1.20;1.20;;;4.70;99.90;;;;;;5053352;28;20179;-64
2020/12/28 03:31:29;;;;;;;1.47;1.30;;;4.70;99.90;;;;;;5052651;28;20640;-64
2020/12/28 03:33:55;;;;;;;1.50;1.40;;;4.60;99.90;;;;;;5053221;28;20191;-64
2020/12/28 03:36:20;;;;;;;1.30;1.30;;;4.60;99.90;;;;;;5052733;28;20178;-64
2020/12/28 03:38:46;;;;;;;1.50;1.40;;;4.60;99.90;;;;;;5053046;28;20175;-65
2020/12/28 03:41:13;;;;;;;1.30;1.20;;;4.60;99.90;;;;;;5052826;28;20198;-65
2020/12/28 03:43:38;;;;;;;1.17;1.17;;;4.60;99.90;;;;;;5052888;28;20190;-66
2020/12/28 03:46:04;;;;;;;1.50;1.40;;;4.50;99.90;;;;;;5052721;28;20510;-67
2020/12/28 03:48:29;;;;;;;1.20;1.20;;;4.50;99.90;;;;;;5053031;28;20171;-64
2020/12/28 03:50:55;;;;;;;1.30;1.30;;;4.50;99.90;;;;;;5052249;28;20647;-64
2020/12/28 03:53:20;;;;;;;1.30;1.10;;;4.50;99.90;;;;;;5052529;28;20198;-64
2020/12/28 03:55:46;;;;;;;1.60;1.50;;;4.50;99.90;;;;;;5052613;28;20450;-64
2020/12/28 03:58:12;;;;;;;1.60;1.50;;;4.40;99.90;;;;;;5052826;28;20171;-66
2020/12/28 04:00:37;;;;;;;1.10;1.10;;;4.40;99.90;;;;;;5052116;28;20170;-65
2020/12/28 04:03:03;;;;;;;1.73;1.63;;;4.40;99.90;;;;;;5052943;28;20734;-66
2020/12/28 04:05:28;;;;;;;1.80;1.70;;;4.40;99.90;;;;;;5052439;28;20465;-66
2020/12/28 04:07:54;;;;;;;2.20;2.00;;;4.40;99.90;;;;;;5052498;28;20181;-66
2020/12/28 04:10:20;;;;;;;1.80;1.70;;;4.40;99.90;;;;;;5051661;28;20178;-66
2020/12/28 04:12:45;;;;;;;2.10;1.97;;;4.50;99.90;;;;;;5051456;28;20202;-66
2020/12/28 04:15:11;;;;;;;2.00;1.80;;;4.50;99.90;;;;;;5052228;28;20178;-66
2020/12/28 04:17:37;;;;;;;1.80;1.70;;;4.50;99.90;;;;;;5052284;28;20559;-66
2020/12/28 04:20:03;;;;;;;1.87;1.77;;;4.50;99.90;;;;;;5051840;28;20241;-66
2020/12/28 04:22:29;;;;;;;1.40;1.30;;;4.50;99.90;;;;;;5051647;28;20644;-66
2020/12/28 04:24:54;;;;;;;1.27;1.27;;;4.40;99.90;;;;;;5052367;28;20254;-67
2020/12/28 04:27:20;;;;;;;1.20;1.20;;;4.40;99.90;;;;;;5052472;28;20214;-66
2020/12/28 04:29:47;;;;;;;2.20;1.30;;;4.30;99.90;;;;;;5052216;28;20721;-66
2020/12/28 04:32:13;;;;;;;1.20;1.20;;;4.30;99.90;;;;;;5051458;28;20209;-66
2020/12/28 04:34:39;;;;;;;1.43;1.30;;;4.30;99.90;;;;;;5052005;28;20253;-66
2020/12/28 04:37:04;;;;;;;1.20;1.20;;;4.30;99.90;;;;;;5051890;28;20175;-66
2020/12/28 04:39:30;;;;;;;1.63;1.33;;;4.30;99.90;;;;;;5052080;28;20625;-66
2020/12/28 04:41:55;;;;;;;1.30;1.30;;;4.30;99.90;;;;;;5051389;28;20175;-66
2020/12/28 04:44:21;;;;;;;1.10;1.10;;;4.30;99.90;;;;;;5051540;28;20206;-65
2020/12/28 04:46:47;;;;;;;1.10;1.10;;;4.30;99.90;;;;;;5051478;28;20186;-66
2020/12/28 04:49:13;;;;;;;1.30;1.30;;;4.40;99.90;;;;;;5051731;28;20198;-66
2020/12/28 04:51:38;;;;;;;1.70;1.60;;;4.30;99.90;;;;;;5051260;28;20582;-66
2020/12/28 04:54:04;;;;;;;4.67;3.10;;;4.20;99.90;;;;;;5051459;28;20199;-65
2020/12/28 04:56:30;;;;;;;2.73;2.30;;;4.10;99.90;;;;;;5051274;28;20534;-66
2020/12/28 04:58:56;;;;;;;3.53;2.30;;;4.00;99.90;;;;;;5051615;28;20171;-66
2020/12/28 05:01:22;;;;;;;5.20;2.93;;;3.90;99.90;;;;;;5051031;28;20667;-66
2020/12/28 05:03:50;;;;;;;14.97;6.30;;;3.80;99.90;;;;;;5051413;28;20198;-65
2020/12/28 05:06:16;;;;;;;11.80;6.00;;;3.70;99.90;;;;;;5051272;28;20187;-64
2020/12/28 05:08:43;;;;;;;8.27;5.23;;;3.60;99.90;;;;;;5051313;28;20178;-64
2020/12/28 05:11:11;;;;;;;22.03;7.57;;;3.60;99.90;;;;;;5050948;28;20184;-64
2020/12/28 05:13:36;;;;;;;26.23;10.50;;;3.60;99.90;;;;;;5051272;28;20193;-64
2020/12/28 05:16:02;;;;;;;20.87;9.37;;;3.50;99.90;;;;;;5051315;28;20179;-64
2020/12/28 05:18:27;;;;;;;16.70;8.03;;;3.40;99.90;;;;;;5050982;28;20197;-64
2020/12/28 05:20:53;;;;;;;23.53;12.13;;;3.40;99.90;;;;;;5051255;28;20171;-65
2020/12/28 05:23:19;;;;;;;16.17;7.97;;;3.40;99.90;;;;;;5069021;22;20223;-64
2020/12/28 05:25:52;;;;;;;8.87;4.10;;;3.30;99.90;;;;;;5071458;28;20227;-64
2020/12/28 05:28:24;;;;;;;1.90;1.80;;;3.30;99.90;;;;;;5075947;28;20188;-64
2020/12/28 05:30:50;;;;;;;1.80;1.70;;;3.30;99.90;;;;;;5091213;28;20533;-64
2020/12/28 05:33:16;;;;;;;1.87;1.67;;;3.20;99.90;;;;;;5086973;28;20259;-65
2020/12/28 05:35:42;;;;;;;1.80;1.70;;;3.20;99.90;;;;;;5071196;28;20259;-64
2020/12/28 05:38:09;;;;;;;1.63;1.53;;;3.10;99.90;;;;;;5073611;28;20185;-64
2020/12/28 05:40:36;;;;;;;2.43;2.10;;;3.10;99.90;;;;;;5091114;28;20166;-64
2020/12/28 05:43:03;;;;;;;1.60;1.50;;;3.10;99.90;;;;;;5089959;28;20802;-64
2020/12/28 05:45:28;;;;;;;3.53;1.50;;;3.10;99.90;;;;;;5071210;28;20245;-64
2020/12/28 05:47:59;;;;;;;1.63;1.53;;;3.10;99.90;;;;;;5090240;28;20281;-64
2020/12/28 05:50:30;;;;;;;1.63;1.53;;;3.10;99.90;;;;;;5090899;28;20174;-65
2020/12/28 05:53:01;;;;;;;1.60;1.50;;;3.20;99.90;;;;;;5072390;28;20213;-64
2020/12/28 05:55:30;;;;;;;1.70;1.60;;;3.20;99.90;;;;;;5071159;28;20245;-64
2020/12/28 05:57:57;;;;;;;1.60;1.50;;;3.20;99.90;;;;;;5088914;28;20177;-64
2020/12/28 06:00:24;;;;;;;2.40;1.63;;;3.20;99.90;;;;;;5091133;28;20172;-64
2020/12/28 06:02:49;;;;;;;1.70;1.60;;;3.30;99.90;;;;;;5074391;28;20590;-64
2020/12/28 06:05:17;;;;;;;2.23;1.60;;;3.30;99.90;;;;;;5071141;28;20170;-64
2020/12/28 06:07:43;;;;;;;1.70;1.60;;;3.30;99.90;;;;;;5085918;28;20250;-64
2020/12/28 06:10:11;;;;;;;1.90;1.80;;;3.20;99.90;;;;;;5090996;28;20184;-64
2020/12/28 06:12:37;;;;;;;3.40;1.70;;;3.20;99.90;;;;;;5076708;28;20209;-64
2020/12/28 06:15:24;;;;;;;2.00;1.67;;;3.10;99.90;;;;;;5081946;28;20611;-64
2020/12/28 06:17:50;;;;;;;2.93;1.90;;;3.00;99.90;;;;;;5090717;28;20735;-64
2020/12/28 06:20:15;;;;;;;2.87;1.50;;;2.90;99.90;;;;;;5078339;28;20265;-64
2020/12/28 06:22:42;;;;;;;1.80;1.70;;;2.90;99.90;;;;;;5070554;28;20707;-64
2020/12/28 06:25:17;;;;;;;1.90;1.77;;;2.80;99.90;;;;;;5081462;28;20658;-64
2020/12/28 06:27:44;;;;;;;1.97;1.60;;;2.80;99.90;;;;;;5087904;28;20657;-64
2020/12/28 06:30:16;;;;;;;13.33;6.83;;;2.80;99.90;;;;;;5070514;28;20670;-64
2020/12/28 06:32:43;;;;;;;2.03;1.93;;;2.80;99.90;;;;;;5070989;28;20226;-64
2020/12/28 06:35:11;;;;;;;2.27;2.07;;;2.80;99.90;;;;;;5092734;28;20165;-64
2020/12/28 06:37:40;;;;;;;3.70;1.90;;;2.80;99.90;;;;;;5093292;28;20162;-64
2020/12/28 06:40:07;;;;;;;3.53;2.07;;;2.80;99.90;;;;;;5074085;28;20170;-64
2020/12/28 06:42:32;;;;;;;2.30;1.80;;;2.70;99.90;;;;;;5079982;28;20224;-64
2020/12/28 06:45:08;;;;;;;2.10;1.90;;;2.70;99.90;;;;;;5080041;28;20659;-64
2020/12/28 06:47:34;;;;;;;3.30;1.93;;;2.70;99.90;;;;;;5077868;28;20239;-64
2020/12/28 06:50:00;;;;;;;2.47;1.93;;;2.60;99.90;;;;;;5073758;28;20171;-63
2020/12/28 06:52:25;;;;;;;2.60;2.40;;;2.60;99.90;;;;;;5077308;28;20698;-64
2020/12/28 06:54:51;;;;;;;2.43;2.23;;;2.50;99.90;;;;;;5073607;28;20193;-64
2020/12/28 06:57:16;;;;;;;3.57;2.30;;;2.50;99.90;;;;;;5087283;28;20181;-64
2020/12/28 06:59:48;;;;;;;2.83;2.43;;;2.40;99.90;;;;;;5093733;28;20581;-64
2020/12/28 07:02:16;;;;;;;3.70;2.97;;;2.40;99.90;;;;;;5080827;28;20174;-64
2020/12/28 07:04:42;;;;;;;2.60;2.40;;;2.30;99.90;;;;;;5073569;28;20420;-64
2020/12/28 07:07:09;;;;;;;2.90;2.33;;;2.20;99.90;;;;;;5084904;28;20185;-64
2020/12/28 07:09:35;;;;;;;3.57;2.43;;;2.20;99.90;;;;;;5093613;28;20169;-64
2020/12/28 07:12:05;;;;;;;2.63;2.43;;;2.20;99.90;;;;;;5075336;28;20566;-64
2020/12/28 07:14:31;;;;;;;3.27;2.77;;;2.20;99.90;;;;;;5073173;28;20186;-64
2020/12/28 07:16:56;;;;;;;2.60;2.40;;;2.10;99.90;;;;;;5090064;28;20173;-65
2020/12/28 07:19:23;;;;;;;2.70;2.50;;;2.10;99.90;;;;;;5093835;28;20170;-64
2020/12/28 07:21:48;;;;;;;3.27;2.97;;;2.00;99.90;;;;;;5077636;28;20650;-65
2020/12/28 07:24:14;;;;;;;2.87;2.63;;;2.00;99.90;;;;;;5073214;28;20297;-64
2020/12/28 07:26:42;;;;;;;5.53;3.17;;;2.00;99.90;;;;;;5086432;28;20185;-64
2020/12/28 07:29:16;;;;;;;2.60;2.40;;;1.90;99.90;;;;;;5093779;28;20170;-65
2020/12/28 07:31:43;;;;;;;3.00;2.70;;;1.90;99.90;;;;;;5079616;28;20194;-64
2020/12/28 07:34:19;;;;;;;2.73;2.53;;;1.90;99.90;;;;;;5073098;28;20659;-64
2020/12/28 07:36:47;;;;;;;3.93;2.83;;;1.90;99.90;;;;;;5085773;28;20209;-64
2020/12/28 07:39:14;;;;;;;4.10;3.10;;;1.90;99.90;;;;;;5093222;28;20169;-64
2020/12/28 07:41:40;;;;;;;8.10;6.20;;;1.90;99.90;;;;;;5090982;28;20646;-64
2020/12/28 07:44:05;;;;;;;11.07;4.80;;;2.00;99.90;;;;;;5092844;28;20197;-64
2020/12/28 07:46:31;;;;;;;6.53;4.97;;;2.00;99.90;;;;;;5082651;28;20186;-64
2020/12/28 07:49:15;;;;;;;10.23;5.37;;;1.90;99.90;;;;;;5072448;28;20182;-64
2020/12/28 07:51:42;;;;;;;11.17;5.53;;;1.90;99.90;;;;;;5082639;28;20581;-64
2020/12/28 07:54:27;;;;;;;4.50;3.87;;;1.90;99.90;;;;;;5092691;28;20182;-64
2020/12/28 07:56:57;;;;;;;4.30;3.50;;;1.90;99.90;;;;;;5080690;28;20250;-64
2020/12/28 07:59:42;;;;;;;5.03;3.80;;;1.90;99.90;;;;;;5072773;28;20227;-64
2020/12/28 08:02:24;;;;;;;5.10;3.43;;;1.90;99.90;;;;;;5085196;28;20177;-63
2020/12/28 08:04:50;;;;;;;4.00;3.07;;;1.90;99.90;;;;;;5091657;28;20787;-64
2020/12/28 08:07:22;;;;;;;4.40;4.00;;;1.90;99.90;;;;;;5092308;28;20173;-64
2020/12/28 08:09:52;;;;;;;3.60;3.27;;;1.90;99.90;;;;;;5082941;28;20186;-64
2020/12/28 08:12:19;;;;;;;3.97;3.63;;;1.90;99.90;;;;;;5071981;28;20198;-64
2020/12/28 08:14:54;;;;;;;6.27;3.83;;;1.90;99.90;;;;;;5080274;28;20304;-63
2020/12/28 08:17:24;;;;;;;4.27;3.53;;;1.90;99.90;;;;;;5092473;28;20173;-64
2020/12/28 08:19:50;;;;;;;5.27;3.70;;;1.90;99.90;;;;;;5083403;28;20231;-64
2020/12/28 08:22:22;;;;;;;4.10;3.70;;;1.90;99.90;;;;;;5071791;28;20170;-64
2020/12/28 08:25:05;;;;;;;4.37;3.70;;;1.90;99.90;;;;;;5079356;28;20217;-64
2020/12/28 08:27:32;;;;;;;6.10;4.03;;;1.90;99.90;;;;;;5092317;28;20188;-63
2020/12/28 08:30:05;;;;;;;6.20;3.53;;;1.90;99.90;;;;;;5082973;28;20205;-64
2020/12/28 08:32:31;;;;;;;4.47;3.43;;;2.00;99.90;;;;;;5070286;28;20259;-64
2020/12/28 08:34:58;;;;;;;3.83;3.00;;;2.00;99.90;;;;;;5079435;28;20166;-64
2020/12/28 08:37:24;;;;;;;3.80;3.17;;;2.10;99.90;;;;;;5092352;28;20475;-63
2020/12/28 08:39:51;;;;;;;8.10;3.60;;;2.20;99.90;;;;;;5085086;28;20174;-64
2020/12/28 08:42:33;;;;;;;5.33;3.10;;;2.30;99.90;;;;;;5071683;28;20170;-64
2020/12/28 08:45:02;;;;;;;4.17;2.97;;;2.30;99.90;;;;;;5078765;28;20173;-64
2020/12/28 08:47:29;;;;;;;3.83;3.10;;;2.40;99.90;;;;;;5091809;28;20512;-64
2020/12/28 08:49:56;;;;;;;5.30;3.80;;;2.50;99.90;;;;;;5081739;28;20223;-64
2020/12/28 08:52:23;;;;;;;7.63;3.43;;;2.50;99.90;;;;;;5071565;28;20248;-64
2020/12/28 08:54:57;;;;;;;3.43;2.70;;;2.60;99.90;;;;;;5071405;28;20272;-64
2020/12/28 08:57:24;;;;;;;3.50;2.60;;;2.60;99.90;;;;;;5071125;28;20177;-63
2020/12/28 08:59:52;;;;;;;3.73;2.70;;;2.70;99.90;;;;;;5078627;28;20180;-64
2020/12/28 09:02:22;;;;;;;6.83;3.10;;;2.90;99.90;;;;;;5089634;28;20169;-64
2020/12/28 09:04:48;;;;;;;2.60;2.30;;;3.20;99.90;;;;;;5071352;28;20197;-63
2020/12/28 09:07:15;;;;;;;3.13;2.00;;;3.60;99.90;;;;;;5071792;28;20162;-64
2020/12/28 09:09:48;;;;;;;3.37;2.27;;;4.10;99.90;;;;;;5091584;28;20653;-64
2020/12/28 09:12:15;;;;;;;2.93;2.30;;;4.60;99.90;;;;;;5090427;28;20224;-65
2020/12/28 09:14:41;;;;;;;5.13;2.00;;;5.10;99.90;;;;;;5051070;28;20213;-64
2020/12/28 09:17:06;;;;;;;3.40;1.67;;;5.70;99.90;;;;;;5051374;28;20163;-65
2020/12/28 09:19:32;;;;;;;2.77;1.80;;;6.00;99.90;;;;;;5088756;28;20181;-64
2020/12/28 09:21:59;;;;;;;5.07;1.60;;;6.40;99.90;;;;;;5091255;28;20175;-64
2020/12/28 09:24:25;;;;;;;1.77;1.60;;;6.60;99.90;;;;;;5072423;28;20701;-64
2020/12/28 09:26:54;;;;;;;2.33;1.67;;;6.70;99.90;;;;;;5071214;28;20235;-64
2020/12/28 09:29:20;;;;;;;2.03;1.70;;;6.70;99.90;;;;;;5085751;28;20544;-64
2020/12/28 09:31:45;;;;;;;3.83;1.90;;;6.70;99.90;;;;;;5077315;28;20198;-64
2020/12/28 09:34:11;;;;;;;1.60;1.50;;;6.80;99.90;;;;;;5071268;28;20540;-64
2020/12/28 09:36:37;;;;;;;4.10;1.60;;;6.80;99.90;;;;;;5082186;28;20550;-64
2020/12/28 09:39:04;;;;;;;2.27;2.07;;;6.70;99.90;;;;;;5091326;28;20188;-64
2020/12/28 09:41:29;;;;;;;4.97;1.90;;;6.60;99.90;;;;;;5080844;28;20178;-64
2020/12/28 09:43:55;;;;;;;1.67;1.57;;;6.50;99.90;;;;;;5070867;28;20567;-64
2020/12/28 09:46:21;;;;;;;2.53;1.90;;;6.40;99.90;;;;;;5079117;28;20564;-64
2020/12/28 09:48:48;;;;;;;1.60;1.50;;;6.10;99.90;;;;;;5091005;28;20209;-64
2020/12/28 09:51:14;;;;;;;4.30;1.93;;;5.70;99.90;;;;;;5084144;28;20185;-63
2020/12/28 09:53:40;;;;;;;2.67;2.23;;;5.40;99.90;;;;;;5070705;28;20194;-64
2020/12/28 09:56:06;;;;;;;2.93;2.20;;;5.20;99.90;;;;;;5082918;28;20176;-64
2020/12/28 09:58:32;;;;;;;2.53;2.23;;;4.90;99.90;;;;;;5087748;28;20178;-64
2020/12/28 10:01:00;;;;;;;2.43;2.23;;;4.70;99.90;;;;;;5070636;28;20529;-63
2020/12/28 10:03:25;;;;;;;2.53;2.10;;;4.50;99.90;;;;;;5071617;28;20193;-64
2020/12/28 10:05:51;;;;;;;2.53;2.33;;;4.40;99.90;;;;;;5091286;28;20554;-64
2020/12/28 10:08:17;;;;;;;5.60;2.50;;;4.30;99.90;;;;;;5091122;28;20182;-64
2020/12/28 10:10:44;;;;;;;5.40;3.00;;;4.30;99.90;;;;;;5073315;28;20190;-64
2020/12/28 10:13:11;;;;;;;6.50;2.90;;;4.30;99.90;;;;;;5074851;28;20201;-64
2020/12/28 10:15:36;;;;;;;4.67;2.40;;;4.30;99.90;;;;;;5092737;28;20184;-64
2020/12/28 10:18:14;;;;;;;5.33;2.73;;;4.30;99.90;;;;;;5094835;28;20248;-64
2020/12/28 10:20:43;;;;;;;2.53;2.33;;;4.40;99.90;;;;;;5075853;28;20206;-65
2020/12/28 10:23:09;;;;;;;3.97;2.17;;;4.40;99.90;;;;;;5093389;28;20299;-64
2020/12/28 10:25:35;;;;;;;2.97;2.50;;;4.40;99.90;;;;;;5077511;28;20217;-64
2020/12/28 10:28:01;;;;;;;2.77;2.33;;;4.50;99.90;;;;;;5088240;28;20264;-64
2020/12/28 10:30:27;;;;;;;2.50;2.30;;;4.50;99.90;;;;;;5094230;28;20257;-64
2020/12/28 10:32:53;;;;;;;4.43;2.77;;;4.50;99.90;;;;;;5081622;28;20209;-64
2020/12/28 10:35:19;;;;;;;3.13;2.60;;;4.60;99.90;;;;;;5074491;28;20166;-64
2020/12/28 10:37:44;;;;;;;3.00;2.67;;;4.70;99.90;;;;;;5084549;28;20642;-64
2020/12/28 10:40:10;;;;;;;3.00;2.10;;;4.80;99.90;;;;;;5094303;28;20245;-64
2020/12/28 10:42:35;;;;;;;2.37;1.93;;;4.90;99.90;;;;;;5084590;28;20183;-64
2020/12/28 10:45:01;;;;;;;3.47;2.20;;;5.00;99.90;;;;;;5072886;28;20544;-64
2020/12/28 10:47:26;;;;;;;3.27;2.30;;;5.00;99.90;;;;;;5081019;28;20554;-64
2020/12/28 10:49:52;;;;;;;2.80;2.40;;;5.00;99.90;;;;;;5093974;28;20177;-64
2020/12/28 10:52:18;;;;;;;4.43;2.83;;;5.10;99.90;;;;;;5088258;28;20651;-64
2020/12/28 10:54:43;;;;;;;4.20;2.87;;;5.20;99.90;;;;;;5074648;28;20200;-65
2020/12/28 10:57:09;;;;;;;3.03;1.93;;;5.20;99.90;;;;;;5094134;28;20170;-64
2020/12/28 10:59:34;;;;;;;3.00;2.30;;;5.20;99.90;;;;;;5092744;28;20653;-64
2020/12/28 11:02:00;;;;;;;3.73;2.13;;;5.20;99.90;;;;;;5073487;28;20174;-64
2020/12/28 11:04:26;;;;;;;3.40;1.87;;;5.20;99.90;;;;;;5073595;28;20594;-64
2020/12/28 11:06:51;;;;;;;2.40;2.07;;;5.20;99.90;;;;;;5074497;28;21346;-64
2020/12/28 11:09:17;;;;;;;3.63;2.17;;;5.20;99.90;;;;;;5073538;28;20174;-64
2020/12/28 11:11:48;;;;;;;3.73;1.90;;;5.30;99.90;;;;;;5090480;28;20205;-64
2020/12/28 11:14:13;;;;;;;2.80;1.73;;;5.30;99.90;;;;;;5093384;28;20185;-64
2020/12/28 11:16:39;;;;;;;3.23;1.90;;;5.30;99.90;;;;;;5075774;28;20697;-64
2020/12/28 11:19:05;;;;;;;3.10;2.03;;;5.40;99.90;;;;;;5073479;28;20581;-64
2020/12/28 11:21:30;;;;;;;2.73;1.67;;;5.50;99.90;;;;;;5087091;28;20178;-64
2020/12/28 11:23:59;;;;;;;2.30;2.10;;;5.60;99.90;;;;;;5095507;22;20230;-65
2020/12/28 11:26:25;;;;;;;4.37;2.57;;;5.70;99.90;;;;;;5053372;28;20266;-65
2020/12/28 11:28:51;;;;;;;3.23;2.00;;;5.90;99.90;;;;;;5064059;28;20177;-65
2020/12/28 11:31:17;;;;;;;4.67;2.30;;;6.20;99.90;;;;;;5072849;28;20249;-65
2020/12/28 11:33:44;;;;;;;2.50;1.87;;;6.40;99.90;;;;;;5063654;28;20195;-65
2020/12/28 11:36:10;;;;;;;3.67;2.90;;;6.80;99.90;;;;;;5053126;28;20182;-65
2020/12/28 11:38:36;;;;;;;3.60;2.00;;;7.20;99.90;;;;;;5052509;28;20182;-64
2020/12/28 11:41:02;;;;;;;2.97;2.17;;;7.50;99.90;;;;;;5052765;28;20166;-65
2020/12/28 11:43:27;;;;;;;2.70;2.13;;;7.70;99.90;;;;;;5052850;28;20194;-65
2020/12/28 11:45:54;;;;;;;2.13;1.80;;;8.10;99.90;;;;;;5053118;28;20174;-65
2020/12/28 11:48:20;;;;;;;7.83;3.13;;;8.40;99.90;;;;;;5052432;28;20704;-65
2020/12/28 11:50:47;;;;;;;5.63;4.13;;;8.70;99.90;;;;;;5052188;28;20189;-65
2020/12/28 11:53:13;;;;;;;1.80;1.50;;;8.80;99.90;;;;;;5052312;28;20205;-65
2020/12/28 11:58:24;;;;;;;4.57;1.67;;;8.30;99.90;;;;;;5052412;28;20232;-65
2020/12/28 12:00:49;;;;;;;2.63;1.60;;;8.10;99.90;;;;;;5052082;28;20644;-65
2020/12/28 12:03:15;;;;;;;1.47;1.40;;;8.10;99.90;;;;;;5052509;28;20274;-64
2020/12/28 12:05:40;;;;;;;1.40;1.30;;;8.00;99.90;;;;;;5052369;28;20177;-65
2020/12/28 12:08:06;;;;;;;2.20;1.77;;;7.90;99.90;;;;;;5052589;28;20224;-65
2020/12/28 12:10:32;;;;;;;2.80;1.70;;;7.90;99.90;;;;;;5051645;28;20725;-65
2020/12/28 12:12:57;;;;;;;2.00;1.60;;;7.70;99.90;;;;;;5052408;28;20209;-65
2020/12/28 12:15:23;;;;;;;2.83;1.87;;;7.70;99.90;;;;;;5052117;28;20186;-65
2020/12/28 12:17:48;;;;;;;1.43;1.33;;;7.40;99.90;;;;;;5050549;28;20213;-65
2020/12/28 12:20:14;;;;;;;3.47;1.70;;;7.30;99.90;;;;;;5051893;28;20177;-65
2020/12/28 12:22:39;;;;;;;2.37;1.80;;;7.20;99.90;;;;;;5050576;28;20183;-65
2020/12/28 12:25:05;;;;;;;2.53;1.63;;;7.10;99.90;;;;;;5051906;28;20233;-65
2020/12/28 12:27:31;;;;;;;2.00;1.60;;;7.00;99.90;;;;;;5051865;28;20183;-65
2020/12/28 12:29:56;;;;;;;1.97;1.60;;;6.80;99.90;;;;;;5050470;28;20538;-65
2020/12/28 12:32:22;;;;;;;2.80;1.80;;;6.70;99.90;;;;;;5051080;28;20293;-65
2020/12/28 12:34:48;;;;;;;2.63;1.63;;;6.60;99.90;;;;;;5051873;28;20186;-65
2020/12/28 12:37:14;;;;;;;1.90;1.80;;;6.50;99.90;;;;;;5051589;28;20702;-65
2020/12/28 12:39:40;;;;;;;2.17;1.73;;;6.50;99.90;;;;;;5050512;28;20179;-65
2020/12/28 12:42:05;;;;;;;3.10;2.00;;;6.50;99.90;;;;;;5051196;28;20187;-65
2020/12/28 12:44:31;;;;;;;1.97;1.77;;;6.50;99.90;;;;;;5051519;28;20190;-64
2020/12/28 12:46:57;;;;;;;4.70;2.00;;;6.50;99.90;;;;;;5051494;28;20209;-65
2020/12/28 12:49:22;;;;;;;2.43;1.80;;;6.50;99.90;;;;;;5051662;28;20640;-65
2020/12/28 12:52:14;;;;;;;3.13;1.87;;;6.50;99.90;;;;;;5050993;28;20199;-65
2020/12/28 12:54:40;;;;;;;2.30;2.10;;;6.60;99.90;;;;;;5050175;28;20199;-65
2020/12/28 12:57:07;;;;;;;2.17;1.97;;;6.60;99.90;;;;;;5051461;28;20262;-65
2020/12/28 13:00:01;;;;;;;2.60;1.90;;;6.60;99.90;;;;;;5051920;28;20175;-65